Terminal Aerodrome Forecast
Issued by NWS Cleveland, OH

Home | Current Version | Previous Version | Text Only | Print | Product List | Glossary On
Versions: 1 2 3 4 5 6 7 8 9 10 11 12 13 14 15 16 17 18 19 20 21 22 23 24 25 26 27 28
000
FTUS41 KCLE 230500
TAFERI
TAF
KERI 230526Z 2306/2406 21015G25KT P6SM OVC045
      TEMPO 2306/2308 6SM -SHRA
     FM231100 19012G22KT 6SM -SHRA OVC035
     FM231600 18012G22KT P6SM OVC035
     FM240300 15025G35KT 5SM -SHRA OVC025=

USA.gov is the U.S. government's official web portal to all federal, state and local government web resources and services.